Time;durP1;ratioP1;P1;durP2;ratioP2;P2;SDS_P1;SDS_P2;PMS_P1;PMS_P2;Temp;Humidity;BMP_temperature;BMP_pressure;BME280_temperature;BME280_humidity;BME280_pressure;Samples;Min_cycle;Max_cycle;Signal;HPM_P1;HPM_P2
2022/05/11 00:01:29;;;;;;;;;;;;;;;21.42;45.09;95850.59;10346780;28;1844;-58
2022/05/11 00:06:29;;;;;;;;;;;;;;;21.41;44.89;95847.16;10338333;28;4295;-59
2022/05/11 00:11:29;;;;;;;;;;;;;;;21.42;45.03;95848.75;10356558;28;1922;-59
2022/05/11 00:16:30;;;;;;;;;;;;;;;21.41;45.03;95838.47;10358377;28;1792;-59
2022/05/11 00:21:30;;;;;;;;;;;;;;;21.41;45.05;95843.75;10357668;28;1622;-59
2022/05/11 00:26:31;;;;;;;;;;;;;;;21.42;45.00;95840.03;10332676;28;2347;-59
2022/05/11 00:31:32;;;;;;;;;;;;;;;21.41;44.88;95838.47;10356439;28;1969;-55
2022/05/11 00:36:32;;;;;;;;;;;;;;;21.42;44.93;95834.75;10355786;28;1900;-55
2022/05/11 00:41:33;;;;;;;;;;;;;;;21.41;44.74;95833.19;10349522;28;1939;-57
2022/05/11 00:46:44;;;;;;;;;;;;;;;21.42;44.70;95832.13;10339822;28;1838;-57
2022/05/11 00:51:45;;;;;;;;;;;;;;;21.41;44.83;95827.94;10323798;28;1976;-57
2022/05/11 00:56:47;;;;;;;;;;;;;;;21.42;44.65;95824.22;10323798;28;1863;-58
2022/05/11 01:01:47;;;;;;;;;;;;;;;21.42;44.74;95824.22;10328041;28;1887;-57
2022/05/11 01:06:47;;;;;;;;;;;;;;;21.41;44.95;95817.38;10332656;28;4189;-59
2022/05/11 01:11:52;;;;;;;;;;;;;;;21.40;44.86;95819.22;10355216;28;1914;-55
2022/05/11 01:17:00;;;;;;;;;;;;;;;21.40;44.76;95818.44;10341840;28;1870;-61
2022/05/11 01:22:19;;;;;;;;;;;;;;;21.39;44.73;95814.22;10348729;28;2015;-56
2022/05/11 01:27:41;;;;;;;;;;;;;;;21.40;44.80;95823.72;10354045;28;2137;-54
2022/05/11 01:32:42;;;;;;;;;;;;;;;21.39;44.70;95820.28;10351585;28;1931;-55
2022/05/11 01:37:43;;;;;;;;;;;;;;;21.41;44.61;95817.38;10349909;28;2030;-57
2022/05/11 01:42:44;;;;;;;;;;;;;;;21.39;44.67;95808.97;10329145;28;1987;-56
2022/05/11 01:47:45;;;;;;;;;;;;;;;21.39;44.44;95811.59;10354980;28;1927;-57
2022/05/11 01:52:46;;;;;;;;;;;;;;;21.39;44.83;95806.31;10348577;28;1985;-57
2022/05/11 01:57:46;;;;;;;;;;;;;;;21.39;44.77;95808.97;10339134;28;1845;-58
2022/05/11 02:02:47;;;;;;;;;;;;;;;21.40;44.51;95807.88;10330503;28;1959;-58
2022/05/11 02:07:50;;;;;;;;;;;;;;;21.38;44.69;95805.53;10340753;28;4202;-59
2022/05/11 02:12:51;;;;;;;;;;;;;;;21.39;44.66;95806.31;10348154;28;1990;-57
2022/05/11 02:17:51;;;;;;;;;;;;;;;21.38;44.60;95802.09;10343982;28;1932;-54
2022/05/11 02:22:51;;;;;;;;;;;;;;;21.38;44.53;95805.53;10347472;28;1921;-55
2022/05/11 02:27:52;;;;;;;;;;;;;;;21.38;44.41;95800.25;10354543;28;1910;-60
2022/05/11 02:32:53;;;;;;;;;;;;;;;21.37;44.14;95803.94;10329308;28;2098;-56
2022/05/11 02:37:55;;;;;;;;;;;;;;;21.38;44.51;95799.47;10338494;28;2086;-57
2022/05/11 02:42:55;;;;;;;;;;;;;;;21.37;44.26;95797.91;10357333;28;1911;-59
2022/05/11 02:47:56;;;;;;;;;;;;;;;21.38;44.47;95794.19;10344687;28;1934;-55
2022/05/11 02:52:57;;;;;;;;;;;;;;;21.39;44.50;95801.06;10334749;28;2466;-57
2022/05/11 02:57:58;;;;;;;;;;;;;;;21.38;44.25;95799.47;10347534;28;2014;-56
2022/05/11 03:02:59;;;;;;;;;;;;;;;21.38;44.34;95796.81;10345238;28;1858;-58
2022/05/11 03:07:59;;;;;;;;;;;;;;;21.38;44.29;95802.09;10332117;28;4231;-62
2022/05/11 03:13:01;;;;;;;;;;;;;;;21.36;44.12;95805.03;10360512;28;1896;-60
2022/05/11 03:18:01;;;;;;;;;;;;;;;21.37;43.99;95803.19;10361677;28;1821;-56
2022/05/11 03:23:02;;;;;;;;;;;;;;;21.37;44.17;95805.81;10354332;28;1972;-58
2022/05/11 03:28:02;;;;;;;;;;;;;;;21.37;44.04;95811.09;10358565;28;2059;-60
2022/05/11 03:38:21;;;;;;;;;;;;;;;21.38;44.30;95812.66;10351746;28;1862;-56
2022/05/11 03:43:22;;;;;;;;;;;;;;;21.37;44.26;95811.09;10334476;28;1745;-58
2022/05/11 03:48:22;;;;;;;;;;;;;;;21.38;44.02;95815.28;10344585;28;1983;-57
2022/05/11 03:53:23;;;;;;;;;;;;;;;21.37;44.13;95811.09;10349157;28;1969;-56
2022/05/11 03:58:24;;;;;;;;;;;;;;;21.37;43.96;95808.44;10338875;28;1892;-56
2022/05/11 04:03:25;;;;;;;;;;;;;;;21.36;43.92;95810.28;10341509;28;1944;-59
2022/05/11 04:08:26;;;;;;;;;;;;;;;21.37;44.10;95811.09;10333756;28;4161;-57
2022/05/11 04:13:26;;;;;;;;;;;;;;;21.37;43.97;95811.09;10346958;28;1939;-56
2022/05/11 04:18:26;;;;;;;;;;;;;;;21.36;43.91;95807.66;10339720;28;1982;-56
2022/05/11 04:23:27;;;;;;;;;;;;;;;21.36;43.88;95807.66;10350359;28;1991;-57
2022/05/11 04:28:27;;;;;;;;;;;;;;;21.37;43.89;95805.81;10322087;28;1963;-54
2022/05/11 04:33:28;;;;;;;;;;;;;;;21.36;44.03;95809.50;10333797;28;2293;-62
2022/05/11 04:38:28;;;;;;;;;;;;;;;21.36;43.95;95810.28;10339770;28;1975;-61
2022/05/11 04:43:28;;;;;;;;;;;;;;;21.37;43.66;95813.72;10338058;28;1952;-58
2022/05/11 04:48:28;;;;;;;;;;;;;;;21.36;43.93;95815.56;10338807;28;2066;-61
2022/05/11 04:53:29;;;;;;;;;;;;;;;21.36;44.02;95820.84;10327392;28;1975;-59
2022/05/11 04:58:30;;;;;;;;;;;;;;;21.39;43.90;95830.06;10348205;28;1982;-60
2022/05/11 05:03:30;;;;;;;;;;;;;;;21.40;43.81;95828.97;10343611;28;1933;-58
2022/05/11 05:08:31;;;;;;;;;;;;;;;21.39;43.53;95830.06;10342116;28;4148;-60
2022/05/11 05:13:31;;;;;;;;;;;;;;;21.38;43.80;95833.75;10352950;28;1943;-55
2022/05/11 05:18:33;;;;;;;;;;;;;;;21.37;43.80;95838.22;10348135;28;1996;-60
2022/05/11 05:23:35;;;;;;;;;;;;;;;21.37;43.84;95832.19;10334227;28;1939;-56
2022/05/11 05:33:59;;;;;;;;;;;;;;;21.40;43.96;95850.06;10349595;28;1856;-55
2022/05/11 05:38:59;;;;;;;;;;;;;;;21.41;43.90;95854.31;10349669;28;1788;-56
2022/05/11 05:44:00;;;;;;;;;;;;;;;21.39;44.01;95851.91;10347896;28;1780;-58
2022/05/11 05:49:01;;;;;;;;;;;;;;;21.41;43.89;95851.66;10346451;28;2004;-60
2022/05/11 05:54:02;;;;;;;;;;;;;;;21.41;43.83;95854.31;10349913;28;2344;-62
2022/05/11 05:59:05;;;;;;;;;;;;;;;21.41;44.04;95852.44;10346908;28;2109;-56
2022/05/11 06:04:06;;;;;;;;;;;;;;;21.39;44.07;95851.16;10339729;28;2174;-60
2022/05/11 06:09:06;;;;;;;;;;;;;;;21.38;44.01;95847.72;10346915;28;4110;-59
2022/05/11 06:14:07;;;;;;;;;;;;;;;21.40;44.36;95852.72;10352051;28;2105;-60
2022/05/11 06:19:08;;;;;;;;;;;;;;;21.42;44.30;95855.88;10303980;28;1812;-56
2022/05/11 06:24:09;;;;;;;;;;;;;;;21.47;43.71;95853.19;10329648;28;1865;-58
2022/05/11 06:29:10;;;;;;;;;;;;;;;21.45;44.01;95850.03;10337750;28;2198;-59
2022/05/11 06:34:10;;;;;;;;;;;;;;;21.47;43.93;95853.19;10350221;28;1860;-59
2022/05/11 06:39:10;;;;;;;;;;;;;;;21.46;43.90;95859.53;10342362;28;1872;-60
2022/05/11 06:44:11;;;;;;;;;;;;;;;21.48;43.70;95860.03;10328227;28;1861;-58
2022/05/11 06:49:11;;;;;;;;;;;;;;;21.43;43.65;95855.56;10324082;28;1973;-56
2022/05/11 06:59:33;;;;;;;;;;;;;;;21.40;43.99;95853.50;10350170;28;1832;-59
2022/05/11 07:04:35;;;;;;;;;;;;;;;21.40;44.34;95847.44;10340547;28;1760;-56
2022/05/11 07:09:35;;;;;;;;;;;;;;;21.41;44.14;95849.03;10341119;28;4175;-60
2022/05/11 07:14:36;;;;;;;;;;;;;;;21.41;44.23;95846.38;10349821;28;1840;-55
2022/05/11 07:19:40;;;;;;;;;;;;;;;21.41;44.09;95852.44;10341584;28;1792;-59
2022/05/11 07:24:42;;;;;;;;;;;;;;;21.43;44.23;95844.25;10354570;28;1852;-57
2022/05/11 07:29:43;;;;;;;;;;;;;;;21.42;44.28;95847.94;10351207;28;1887;-59
2022/05/11 07:34:44;;;;;;;;;;;;;;;21.42;44.46;95845.31;10334186;28;1741;-53
2022/05/11 07:39:44;;;;;;;;;;;;;;;21.42;44.39;95837.41;10334915;28;2023;-59
2022/05/11 07:44:45;;;;;;;;;;;;;;;21.44;44.58;95840.56;10335268;28;1851;-53
2022/05/11 07:49:45;;;;;;;;;;;;;;;21.44;44.52;95845.81;10350921;28;1975;-56
2022/05/11 07:54:45;;;;;;;;;;;;;;;21.46;44.38;95838.41;10330800;28;1788;-60
2022/05/11 07:59:52;;;;;;;;;;;;;;;21.47;44.01;95832.09;10334835;28;1903;-61
2022/05/11 08:04:59;;;;;;;;;;;;;;;21.44;44.00;95830.78;10344648;28;1991;-56
2022/05/11 08:09:59;;;;;;;;;;;;;;;21.43;43.98;95837.13;10330618;28;4092;-56
2022/05/11 08:15:00;;;;;;;;;;;;;;;21.43;43.74;95837.13;10352759;28;1975;-54
2022/05/11 08:20:00;;;;;;;;;;;;;;;21.44;43.64;95836.06;10352312;28;1654;-58
2022/05/11 08:25:01;;;;;;;;;;;;;;;21.42;43.60;95835.56;10350580;28;1819;-58
2022/05/11 08:35:21;;;;;;;;;;;;;;;21.41;43.57;95820.78;10353293;28;1876;-58
2022/05/11 08:40:39;;;;;;;;;;;;;;;21.40;43.73;95821.88;10353930;28;1753;-55
2022/05/11 08:45:45;;;;;;;;;;;;;;;21.43;43.72;95818.66;10349157;28;1967;-62
2022/05/11 08:50:46;;;;;;;;;;;;;;;21.46;43.69;95809.41;10311624;28;1930;-58
2022/05/11 08:55:50;;;;;;;;;;;;;;;21.45;43.67;95824.44;10337247;28;1825;-59
2022/05/11 09:00:52;;;;;;;;;;;;;;;21.47;43.36;95813.63;10349765;28;1864;-59
2022/05/11 09:05:52;;;;;;;;;;;;;;;21.53;43.65;95825.72;10350445;28;1896;-57
2022/05/11 09:10:52;;;;;;;;;;;;;;;21.53;44.03;95823.06;10349835;28;4164;-56
2022/05/11 09:15:53;;;;;;;;;;;;;;;21.54;44.24;95814.09;10336309;28;3380;-54
2022/05/11 09:20:55;;;;;;;;;;;;;;;21.58;44.25;95815.09;10342261;28;1840;-57
2022/05/11 09:26:03;;;;;;;;;;;;;;;21.58;44.44;95815.09;10330345;28;1880;-57
2022/05/11 09:31:03;;;;;;;;;;;;;;;21.58;44.49;95807.97;10326533;28;1980;-58
2022/05/11 09:36:05;;;;;;;;;;;;;;;21.62;44.45;95808.19;10336392;28;1889;-60
2022/05/11 09:41:13;;;;;;;;;;;;;;;21.64;44.33;95798.16;10338904;28;1873;-58
2022/05/11 09:46:34;;;;;;;;;;;;;;;21.62;44.20;95803.72;10354392;28;1871;-55
2022/05/11 09:51:34;;;;;;;;;;;;;;;21.67;43.76;95798.41;10329605;28;1927;-56
2022/05/11 09:56:35;;;;;;;;;;;;;;;21.74;42.23;95798.84;10328950;28;1802;-58
2022/05/11 10:01:36;;;;;;;;;;;;;;;21.67;41.49;95789.69;10339355;28;1841;-62
2022/05/11 10:06:43;;;;;;;;;;;;;;;21.64;41.14;95787.59;10337729;28;1821;-57
2022/05/11 10:11:45;;;;;;;;;;;;;;;21.61;40.82;95793.47;10314617;28;1928;-59
2022/05/11 10:22:08;;;;;;;;;;;;;;;21.60;39.51;95778.69;10316959;28;1799;-61
2022/05/11 10:27:13;;;;;;;;;;;;;;;21.61;40.16;95785.53;10343676;28;1856;-59
2022/05/11 10:32:30;;;;;;;;;;;;;;;21.62;40.36;95774.69;10345637;28;1902;-60
2022/05/11 10:37:40;;;;;;;;;;;;;;;21.63;40.30;95776.28;10335477;28;1797;-61
2022/05/11 10:42:40;;;;;;;;;;;;;;;21.65;40.37;95773.38;10346660;28;1801;-58
2022/05/11 10:47:47;;;;;;;;;;;;;;;21.64;40.26;95769.94;10333886;28;1767;-59
2022/05/11 10:52:47;;;;;;;;;;;;;;;21.63;39.70;95757.81;10333011;28;2349;-57
2022/05/11 10:58:07;;;;;;;;;;;;;;;21.65;39.66;95754.91;10338828;28;1857;-58
2022/05/11 11:03:27;;;;;;;;;;;;;;;21.64;39.79;95748.81;10328998;28;1824;-60
2022/05/11 11:08:31;;;;;;;;;;;;;;;21.67;39.80;95734.31;10349370;28;1910;-59
2022/05/11 11:13:34;;;;;;;;;;;;;;;21.69;39.80;95732.97;10364441;28;2162;-61
2022/05/11 11:18:36;;;;;;;;;;;;;;;21.71;39.53;95737.94;10346811;28;1709;-59
2022/05/11 11:23:37;;;;;;;;;;;;;;;21.99;35.67;95713.38;10354764;28;1836;-60
2022/05/11 11:28:40;;;;;;;;;;;;;;;22.13;34.86;95711.63;10342969;28;1910;-54
2022/05/11 11:33:54;;;;;;;;;;;;;;;22.16;34.91;95704.97;10358084;28;1758;-59
2022/05/11 11:38:56;;;;;;;;;;;;;;;22.20;35.01;95706.75;10339802;28;1856;-60
2022/05/11 11:44:16;;;;;;;;;;;;;;;22.27;34.65;95709.06;10340974;28;1789;-57
2022/05/11 11:49:19;;;;;;;;;;;;;;;22.34;34.45;95694.41;10337276;28;1926;-55
2022/05/11 11:54:27;;;;;;;;;;;;;;;22.43;33.46;95691.91;10347865;28;2286;-58
2022/05/11 11:59:28;;;;;;;;;;;;;;;22.15;35.05;95687.56;10357636;28;1787;-54
2022/05/11 12:04:36;;;;;;;;;;;;;;;22.04;36.23;95678.19;10333116;28;1777;-57
2022/05/11 12:15:13;;;;;;;;;;;;;;;22.01;37.02;95673.50;10334866;28;1753;-58
2022/05/11 12:20:19;;;;;;;;;;;;;;;22.00;37.59;95667.44;10319179;28;1761;-59
2022/05/11 12:25:20;;;;;;;;;;;;;;;22.03;37.75;95668.72;10363442;28;1867;-58
2022/05/11 12:30:39;;;;;;;;;;;;;;;22.02;38.07;95660.03;10348911;28;1914;-56
2022/05/11 12:35:41;;;;;;;;;;;;;;;22.02;38.69;95652.09;10351716;28;1792;-56
2022/05/11 12:40:45;;;;;;;;;;;;;;;22.03;38.92;95650.25;10345610;28;1879;-58
2022/05/11 12:45:46;;;;;;;;;;;;;;;22.02;39.32;95640.75;10354085;28;1852;-57
2022/05/11 12:50:55;;;;;;;;;;;;;;;22.02;39.51;95638.09;10338240;28;1918;-58
2022/05/11 12:56:08;;;;;;;;;;;;;;;22.02;39.98;95625.69;10359702;28;1820;-57
2022/05/11 13:01:10;;;;;;;;;;;;;;;22.04;40.09;95622.78;10350751;28;1785;-57
2022/05/11 13:06:27;;;;;;;;;;;;;;;22.09;40.16;95623.47;10334164;28;2095;-57
2022/05/11 13:11:28;;;;;;;;;;;;;;;22.10;40.07;95611.84;10329392;28;2082;-55
2022/05/11 13:16:32;;;;;;;;;;;;;;;22.08;40.15;95603.44;10348455;28;2079;-56
2022/05/11 13:21:35;;;;;;;;;;;;;;;22.09;40.65;95607.63;10361057;28;1923;-54
2022/05/11 13:26:35;;;;;;;;;;;;;;;22.11;40.33;95592.31;10362409;28;1804;-58
2022/05/11 13:31:35;;;;;;;;;;;;;;;22.14;40.47;95583.03;10340586;28;1968;-58
2022/05/11 13:36:43;;;;;;;;;;;;;;;22.14;40.86;95578.53;10336342;28;1898;-56
2022/05/11 13:41:48;;;;;;;;;;;;;;;22.15;40.71;95564.28;10344626;28;1858;-59
2022/05/11 13:52:27;;;;;;;;;;;;;;;22.14;40.12;95549.50;10342216;28;1910;-58
2022/05/11 13:57:32;;;;;;;;;;;;;;;22.14;40.04;95552.13;10339361;28;1979;-56
2022/05/11 14:02:32;;;;;;;;;;;;;;;22.14;40.26;95546.06;10362375;28;1748;-57
2022/05/11 14:07:33;;;;;;;;;;;;;;;22.15;40.08;95543.16;10352604;28;1872;-58
2022/05/11 14:12:33;;;;;;;;;;;;;;;22.14;40.17;95533.66;10356655;28;1997;-59
2022/05/11 14:17:39;;;;;;;;;;;;;;;22.17;39.94;95530.47;10331660;28;1770;-57
2022/05/11 14:22:41;;;;;;;;;;;;;;;22.16;40.31;95523.59;10347654;28;1714;-57
2022/05/11 14:27:41;;;;;;;;;;;;;;;22.17;40.31;95525.19;10349323;28;2173;-59
2022/05/11 14:32:42;;;;;;;;;;;;;;;22.16;40.28;95523.59;10352952;28;1914;-58
2022/05/11 14:37:43;;;;;;;;;;;;;;;22.15;40.55;95511.47;10360174;28;1955;-60
2022/05/11 14:42:43;;;;;;;;;;;;;;;22.15;40.33;95516.75;10347459;28;1811;-61
2022/05/11 14:47:46;;;;;;;;;;;;;;;22.15;40.07;95508.06;10373898;28;1843;-57
2022/05/11 14:52:49;;;;;;;;;;;;;;;22.13;40.20;95511.00;10360602;28;1918;-55
2022/05/11 15:03:09;;;;;;;;;;;;;;;22.13;40.21;95505.72;10339561;28;1798;-61
2022/05/11 15:08:09;;;;;;;;;;;;;;;22.15;40.52;95500.13;10341941;28;1750;-61
2022/05/11 15:18:28;;;;;;;;;;;;;;;22.15;40.40;95500.13;10349110;28;2426;-57
2022/05/11 15:23:28;;;;;;;;;;;;;;;22.15;40.42;95503.56;10341324;28;1847;-57
2022/05/11 15:28:29;;;;;;;;;;;;;;;22.15;40.61;95500.13;10346452;28;1973;-58
2022/05/11 15:33:29;;;;;;;;;;;;;;;22.15;40.85;95492.22;10343218;28;1717;-57
2022/05/11 15:38:30;;;;;;;;;;;;;;;22.13;40.68;95505.72;10330865;28;1898;-56
2022/05/11 15:43:30;;;;;;;;;;;;;;;22.14;40.77;95485.34;10355411;28;1812;-59
2022/05/11 15:48:31;;;;;;;;;;;;;;;22.14;40.84;95486.13;10357497;28;1922;-57
2022/05/11 15:53:33;;;;;;;;;;;;;;;22.14;40.74;95488.00;10352687;28;2007;-57
2022/05/11 15:58:36;;;;;;;;;;;;;;;22.13;40.87;95491.72;10347486;28;1733;-59
2022/05/11 16:03:37;;;;;;;;;;;;;;;22.14;41.08;95485.34;10341937;28;1916;-62
2022/05/11 16:08:37;;;;;;;;;;;;;;;22.13;41.05;95481.94;10339828;28;1922;-58
2022/05/11 16:13:37;;;;;;;;;;;;;;;22.14;41.31;95482.72;10343918;28;1809;-56
2022/05/11 16:23:57;;;;;;;;;;;;;;;22.13;40.99;95487.22;10336356;28;1851;-54
2022/05/11 16:28:58;;;;;;;;;;;;;;;22.14;41.00;95478.22;10335394;28;1914;-55
2022/05/11 16:33:59;;;;;;;;;;;;;;;22.13;41.13;95476.66;10330990;28;1647;-60
2022/05/11 16:38:59;;;;;;;;;;;;;;;22.13;41.19;95466.09;10330743;28;1769;-59
2022/05/11 16:43:59;;;;;;;;;;;;;;;22.12;41.27;95467.16;10340297;28;1868;-56
2022/05/11 16:49:00;;;;;;;;;;;;;;;22.14;41.36;95467.66;10350731;28;1977;-59
2022/05/11 16:54:00;;;;;;;;;;;;;;;22.14;41.22;95467.66;10347158;28;1804;-61
2022/05/11 16:59:00;;;;;;;;;;;;;;;22.14;41.49;95465.03;10353981;28;1847;-58
2022/05/11 17:04:01;;;;;;;;;;;;;;;22.14;41.43;95467.66;10354546;28;1827;-52
2022/05/11 17:09:06;;;;;;;;;;;;;;;22.14;41.17;95467.66;10349803;28;1981;-56
2022/05/11 17:14:06;;;;;;;;;;;;;;;22.15;41.33;95463.16;10335543;28;2314;-61
2022/05/11 17:19:07;;;;;;;;;;;;;;;22.14;41.46;95467.66;10354360;28;1911;-58
2022/05/11 17:24:07;;;;;;;;;;;;;;;22.14;41.19;95467.66;10326299;28;1916;-59
2022/05/11 17:29:07;;;;;;;;;;;;;;;22.16;41.54;95465.50;10336436;28;2084;-57
2022/05/11 17:34:08;;;;;;;;;;;;;;;22.18;41.55;95475.78;10347410;28;2135;-60
2022/05/11 17:39:08;;;;;;;;;;;;;;;22.17;41.57;95475.00;10334319;28;1909;-57
2022/05/11 17:44:09;;;;;;;;;;;;;;;22.17;41.92;95482.94;10337377;28;1869;-60
2022/05/11 17:49:10;;;;;;;;;;;;;;;22.16;41.89;95481.34;10335378;28;1902;-59
2022/05/11 17:54:11;;;;;;;;;;;;;;;22.16;41.83;95478.72;10334331;28;2242;-55
2022/05/11 17:59:11;;;;;;;;;;;;;;;22.16;41.54;95489.28;10351025;28;2249;-60
2022/05/11 18:04:13;;;;;;;;;;;;;;;22.15;41.60;95487.72;10350536;28;1814;-62
2022/05/11 18:09:14;;;;;;;;;;;;;;;22.15;41.74;95493.00;10345429;28;1977;-62
2022/05/11 18:14:14;;;;;;;;;;;;;;;22.16;41.79;95491.13;10354317;28;1833;-60
2022/05/11 18:19:14;;;;;;;;;;;;;;;22.15;41.57;95493.00;10345011;28;2233;-59
2022/05/11 18:24:14;;;;;;;;;;;;;;;22.14;41.29;95493.28;10345183;28;2218;-59
2022/05/11 18:29:15;;;;;;;;;;;;;;;22.17;41.01;95493.50;10330842;28;1926;-61
2022/05/11 18:34:16;;;;;;;;;;;;;;;22.16;41.07;95499.84;10363905;28;1808;-60
2022/05/11 18:39:17;;;;;;;;;;;;;;;22.15;41.22;95505.41;10332453;28;1857;-58
2022/05/11 18:44:18;;;;;;;;;;;;;;;22.14;41.08;95519.66;10348847;28;1879;-63
2022/05/11 18:49:18;;;;;;;;;;;;;;;22.13;40.97;95524.19;10329693;28;1977;-60
2022/05/11 18:54:20;;;;;;;;;;;;;;;22.13;40.89;95524.19;10349705;28;1807;-60
2022/05/11 18:59:20;;;;;;;;;;;;;;;22.13;40.95;95523.41;10360515;28;1875;-61
2022/05/11 19:04:20;;;;;;;;;;;;;;;22.14;40.68;95527.59;10362219;28;1781;-59
2022/05/11 19:09:21;;;;;;;;;;;;;;;22.16;40.74;95528.88;10338924;28;2037;-60
2022/05/11 19:14:22;;;;;;;;;;;;;;;22.16;40.78;95536.00;10370176;28;1816;-56
2022/05/11 19:19:23;;;;;;;;;;;;;;;22.16;40.81;95541.28;10362102;28;1878;-61
2022/05/11 19:24:23;;;;;;;;;;;;;;;22.17;41.17;95542.88;10371413;28;1979;-56
2022/05/11 19:29:25;;;;;;;;;;;;;;;22.18;41.17;95547.06;10371266;28;1943;-59
2022/05/11 19:34:25;;;;;;;;;;;;;;;22.19;40.99;95553.91;10349373;28;1823;-60
2022/05/11 19:39:25;;;;;;;;;;;;;;;22.19;41.37;95554.72;10379677;28;1796;-59
2022/05/11 19:44:26;;;;;;;;;;;;;;;22.19;41.36;95562.63;10368464;28;1781;-57
2022/05/11 19:49:28;;;;;;;;;;;;;;;22.20;41.35;95566.03;10342699;28;1981;-61
2022/05/11 19:54:28;;;;;;;;;;;;;;;22.20;41.51;95566.03;10339942;28;1937;-59
2022/05/11 19:59:29;;;;;;;;;;;;;;;22.19;41.66;95560.00;10344573;28;1897;-56
2022/05/11 20:04:30;;;;;;;;;;;;;;;22.19;41.29;95564.47;10363965;28;1809;-62
2022/05/11 20:09:30;;;;;;;;;;;;;;;22.19;41.35;95560.00;10340949;28;1977;-60
2022/05/11 20:14:32;;;;;;;;;;;;;;;22.19;41.41;95573.19;10351854;28;1768;-55
2022/05/11 20:19:32;;;;;;;;;;;;;;;22.19;41.50;95573.19;10353588;28;1931;-61
2022/05/11 20:24:34;;;;;;;;;;;;;;;22.19;41.54;95570.56;10354460;28;1872;-59
2022/05/11 20:29:34;;;;;;;;;;;;;;;22.18;41.65;95579.53;10343570;28;1915;-58
2022/05/11 20:39:54;;;;;;;;;;;;;;;22.18;41.57;95582.16;10351831;28;1839;-58
2022/05/11 20:44:56;;;;;;;;;;;;;;;22.19;41.55;95586.41;10341966;28;2693;-57
2022/05/11 20:49:56;;;;;;;;;;;;;;;22.18;41.61;95584.81;10337709;28;2063;-58
2022/05/11 20:54:57;;;;;;;;;;;;;;;22.18;41.38;95592.72;10335530;28;1777;-59
2022/05/11 20:59:57;;;;;;;;;;;;;;;22.20;41.34;95592.44;10339453;28;1888;-57
2022/05/11 21:04:57;;;;;;;;;;;;;;;22.19;41.46;95598.81;10337926;28;1822;-55
2022/05/11 21:09:58;;;;;;;;;;;;;;;22.19;41.28;95596.94;10350995;28;1903;-58
2022/05/11 21:14:58;;;;;;;;;;;;;;;22.20;41.37;95600.34;10338309;28;1802;-61
2022/05/11 21:19:58;;;;;;;;;;;;;;;22.19;41.69;95596.94;10341623;28;1814;-57
2022/05/11 21:24:59;;;;;;;;;;;;;;;22.20;41.30;95601.16;10338532;28;1877;-61
2022/05/11 21:29:59;;;;;;;;;;;;;;;22.19;41.47;95604.09;10336307;28;1906;-57
2022/05/11 21:35:01;;;;;;;;;;;;;;;22.18;41.47;95599.84;10327636;28;1785;-59
2022/05/11 21:40:02;;;;;;;;;;;;;;;22.19;41.21;95601.44;10348941;28;1823;-58
2022/05/11 21:45:03;;;;;;;;;;;;;;;22.20;41.37;95603.00;10343985;28;1808;-55
2022/05/11 21:50:05;;;;;;;;;;;;;;;22.18;41.38;95611.22;10353180;28;1907;-59
2022/05/11 21:55:06;;;;;;;;;;;;;;;22.18;41.21;95610.41;10339188;28;1821;-58
2022/05/11 22:00:08;;;;;;;;;;;;;;;22.19;41.40;95617.28;10340140;28;1828;-56
2022/05/11 22:05:08;;;;;;;;;;;;;;;22.19;41.08;95614.66;10337298;28;1781;-61
2022/05/11 22:10:09;;;;;;;;;;;;;;;22.19;41.16;95612.78;10334648;28;1963;-59
2022/05/11 22:15:09;;;;;;;;;;;;;;;22.18;41.26;95611.22;10338932;28;2237;-57
2022/05/11 22:20:10;;;;;;;;;;;;;;;22.17;41.23;95625.50;10353271;28;1849;-56
2022/05/11 22:25:16;;;;;;;;;;;;;;;22.18;41.51;95613.06;10352974;28;1831;-54
2022/05/11 22:30:17;;;;;;;;;;;;;;;22.18;41.02;95613.84;10331056;28;1914;-55
2022/05/11 22:35:17;;;;;;;;;;;;;;;22.18;41.07;95616.50;10342987;28;1709;-58
2022/05/11 22:40:18;;;;;;;;;;;;;;;22.19;41.22;95612.00;10334868;28;1693;-59
2022/05/11 22:45:19;;;;;;;;;;;;;;;22.17;41.37;95614.94;10352999;28;1785;-57
2022/05/11 22:50:21;;;;;;;;;;;;;;;22.18;41.28;95621.78;10351039;28;1941;-58
2022/05/11 22:55:21;;;;;;;;;;;;;;;22.19;41.19;95627.84;10356113;28;1741;-57
2022/05/11 23:00:23;;;;;;;;;;;;;;;22.19;41.12;95622.56;10360298;28;1867;-58
2022/05/11 23:05:23;;;;;;;;;;;;;;;22.18;41.24;95629.69;10345802;28;1784;-57
2022/05/11 23:10:25;;;;;;;;;;;;;;;22.18;41.38;95631.53;10336099;28;1924;-59
2022/05/11 23:15:28;;;;;;;;;;;;;;;22.18;41.36;95628.91;10343807;28;1848;-57
2022/05/11 23:20:28;;;;;;;;;;;;;;;22.18;41.29;95628.91;10360011;28;1780;-60
2022/05/11 23:25:29;;;;;;;;;;;;;;;22.18;41.23;95632.34;10344373;28;1938;-60
2022/05/11 23:30:30;;;;;;;;;;;;;;;22.18;41.16;95634.97;10343606;28;1982;-60
2022/05/11 23:35:30;;;;;;;;;;;;;;;22.19;41.20;95630.50;10352559;28;1793;-59
2022/05/11 23:40:31;;;;;;;;;;;;;;;22.17;41.34;95628.13;10356517;28;2308;-57
2022/05/11 23:45:31;;;;;;;;;;;;;;;22.18;41.34;95632.34;10356358;28;1853;-57
2022/05/11 23:50:32;;;;;;;;;;;;;;;22.18;41.44;95626.25;10350803;28;1974;-59
2022/05/11 23:55:32;;;;;;;;;;;;;;;22.19;41.40;95628.63;10357573;28;1832;-59
